Time;durP1;ratioP1;P1;durP2;ratioP2;P2;SDS_P1;SDS_P2;PMS_P1;PMS_P2;Temp;Humidity;BMP_temperature;BMP_pressure;BME280_temperature;BME280_humidity;BME280_pressure;Samples;Min_cycle;Max_cycle;Signal;HPM_P1;HPM_P2
2023/10/10 00:01:04;;;;;;;20.87;9.27;;;20.40;53.50;;;;;;5058735;28;20985;-48
2023/10/10 00:03:31;;;;;;;16.63;8.50;;;20.40;53.40;;;;;;5064960;28;20442;-50
2023/10/10 00:06:06;;;;;;;14.50;8.70;;;20.40;53.30;;;;;;5064617;28;20438;-47
2023/10/10 00:08:43;;;;;;;14.80;8.60;;;20.30;53.60;;;;;;5066824;28;20447;-50
2023/10/10 00:11:14;;;;;;;19.67;8.40;;;20.20;53.80;;;;;;5059735;28;20442;-50
2023/10/10 00:13:52;;;;;;;16.10;7.40;;;20.20;53.90;;;;;;5066954;28;20438;-48
2023/10/10 00:18:51;;;;;;;13.73;8.30;;;20.20;53.90;;;;;;5069946;28;20434;-46
2023/10/10 00:21:23;;;;;;;18.63;8.13;;;20.10;54.20;;;;;;5071898;28;20456;-46
2023/10/10 00:23:50;;;;;;;13.10;7.73;;;20.10;54.00;;;;;;5070446;28;20202;-46
2023/10/10 00:26:26;;;;;;;12.33;8.03;;;20.20;54.10;;;;;;5071705;28;20422;-51
2023/10/10 00:28:55;;;;;;;12.57;7.80;;;20.10;54.30;;;;;;5068171;28;20468;-46
2023/10/10 00:31:22;;;;;;;15.83;8.30;;;19.90;54.50;;;;;;5067462;28;20479;-48
2023/10/10 00:33:52;;;;;;;16.90;8.40;;;19.80;54.70;;;;;;5068867;28;20870;-46
2023/10/10 00:36:33;;;;;;;17.13;9.30;;;19.80;55.10;;;;;;5061739;28;20856;-48
2023/10/10 00:39:06;;;;;;;16.80;8.10;;;19.80;54.70;;;;;;5071510;28;20505;-46
2023/10/10 00:41:42;;;;;;;14.10;7.30;;;19.80;54.90;;;;;;5068865;28;20450;-46
2023/10/10 00:44:11;;;;;;;15.00;7.47;;;19.80;55.00;;;;;;5065663;28;20925;-46
2023/10/10 00:46:37;;;;;;;14.43;6.87;;;19.90;55.40;;;;;;5056929;28;20999;-46
2023/10/10 00:49:08;;;;;;;15.50;7.53;;;19.80;55.50;;;;;;5067919;28;20485;-46
2023/10/10 00:51:33;;;;;;;10.13;7.73;;;19.90;55.40;;;;;;5070299;28;20188;-46
2023/10/10 00:54:12;;;;;;;13.17;6.67;;;19.80;54.70;;;;;;5070422;28;20442;-51
2023/10/10 00:56:43;;;;;;;17.60;8.53;;;19.90;54.50;;;;;;5067165;28;20474;-49
2023/10/10 00:59:09;;;;;;;11.03;7.00;;;19.90;54.20;;;;;;5070233;28;20492;-46
2023/10/10 01:01:35;;;;;;;11.10;7.27;;;19.90;54.50;;;;;;5070801;28;20431;-45
2023/10/10 01:04:00;;;;;;;17.10;7.57;;;19.90;54.80;;;;;;5065812;28;20198;-47
2023/10/10 01:06:26;;;;;;;14.70;7.67;;;19.90;54.90;;;;;;5062709;28;20191;-46
2023/10/10 01:09:04;;;;;;;13.33;8.13;;;19.80;54.70;;;;;;5066175;28;20231;-46
2023/10/10 01:11:30;;;;;;;10.63;6.70;;;19.80;54.90;;;;;;5067324;28;20207;-45
2023/10/10 01:13:56;;;;;;;14.20;7.67;;;19.90;54.90;;;;;;5063735;28;20541;-46
2023/10/10 01:16:27;;;;;;;12.50;6.73;;;19.90;54.70;;;;;;5063827;28;20945;-46
2023/10/10 01:19:02;;;;;;;11.50;7.07;;;19.80;54.70;;;;;;5061968;28;20443;-50
2023/10/10 01:21:43;;;;;;;12.97;7.27;;;19.70;55.10;;;;;;5066743;28;20446;-46
2023/10/10 01:24:12;;;;;;;15.77;7.37;;;19.80;54.70;;;;;;5070249;28;20521;-47
2023/10/10 01:26:44;;;;;;;11.53;6.57;;;19.80;54.60;;;;;;5070179;28;20840;-46
2023/10/10 01:29:50;;;;;;;12.90;6.67;;;19.90;54.90;;;;;;5070049;28;20482;-46
2023/10/10 01:32:03;;;;;;;16.03;7.17;;;19.80;54.80;;;;;;5061917;28;20816;-48
2023/10/10 01:34:39;;;;;;;13.60;6.70;;;19.80;55.00;;;;;;5068050;28;20499;-45
2023/10/10 01:37:29;;;;;;;17.17;6.93;;;19.80;55.00;;;;;;5067109;28;20473;-46
2023/10/10 01:42:44;;;;;;;14.93;6.30;;;19.80;54.60;;;;;;5055633;28;20446;-46
2023/10/10 01:45:10;;;;;;;13.17;6.67;;;19.90;54.40;;;;;;5068082;28;20430;-46
2023/10/10 01:47:39;;;;;;;11.13;7.20;;;19.90;54.20;;;;;;5059032;28;20485;-46
2023/10/10 01:50:12;;;;;;;13.83;7.20;;;19.80;54.20;;;;;;5066172;28;20485;-48
2023/10/10 01:52:45;;;;;;;11.30;6.27;;;19.90;54.10;;;;;;5055487;28;20438;-47
2023/10/10 01:55:11;;;;;;;12.37;7.27;;;19.80;54.10;;;;;;5053845;28;20445;-45
2023/10/10 01:57:37;;;;;;;18.37;7.27;;;19.80;54.50;;;;;;5061061;28;20491;-50
2023/10/10 02:00:19;;;;;;;12.80;6.77;;;19.80;54.60;;;;;;5062260;28;20501;-52
2023/10/10 02:02:53;;;;;;;12.70;6.53;;;19.70;54.70;;;;;;5064050;28;20215;-50
2023/10/10 02:08:09;;;;;;;18.20;7.00;;;19.70;55.00;;;;;;5064725;28;20460;-51
2023/10/10 02:10:45;;;;;;;14.80;7.20;;;19.80;54.60;;;;;;5060015;28;21184;-52
2023/10/10 02:13:11;;;;;;;16.10;7.97;;;19.90;54.70;;;;;;5065912;28;20438;-51
2023/10/10 02:15:40;;;;;;;15.00;7.43;;;19.90;54.40;;;;;;5063705;28;20447;-46
2023/10/10 02:18:12;;;;;;;14.77;6.50;;;20.00;54.00;;;;;;5058741;28;20228;-46
2023/10/10 02:23:32;;;;;;;12.87;7.20;;;20.00;54.00;;;;;;5066726;28;20453;-49
2023/10/10 02:26:13;;;;;;;17.40;8.07;;;19.90;53.70;;;;;;5067619;28;20571;-47
2023/10/10 02:28:46;;;;;;;12.80;7.00;;;19.70;54.60;;;;;;5066253;28;20861;-47
2023/10/10 02:31:15;;;;;;;13.10;6.27;;;19.80;54.50;;;;;;5067170;28;20909;-50
2023/10/10 02:33:48;;;;;;;12.00;6.70;;;19.80;54.00;;;;;;5066569;28;20442;-49
2023/10/10 02:36:29;;;;;;;15.67;7.50;;;19.80;54.10;;;;;;5061877;28;20802;-48
2023/10/10 02:38:56;;;;;;;13.40;7.10;;;19.80;54.30;;;;;;5069094;28;20448;-46
2023/10/10 02:41:26;;;;;;;15.10;7.37;;;19.80;54.00;;;;;;5064588;28;20964;-46
2023/10/10 02:44:02;;;;;;;10.90;6.37;;;19.80;53.50;;;;;;5065467;28;20901;-49
2023/10/10 02:46:35;;;;;;;12.33;6.80;;;19.80;53.60;;;;;;5067478;28;20536;-46
2023/10/10 02:49:12;;;;;;;15.67;6.43;;;19.80;53.80;;;;;;5068398;28;20507;-47
2023/10/10 02:51:43;;;;;;;18.03;7.87;;;19.70;54.40;;;;;;5069094;28;20524;-47
2023/10/10 02:57:53;;;;;;;14.10;6.53;;;19.70;54.40;;;;;;5064597;28;20590;-50
2023/10/10 02:59:59;;;;;;;15.63;7.40;;;19.70;55.10;;;;;;5064727;28;20454;-50
2023/10/10 03:02:29;;;;;;;12.40;7.00;;;19.60;54.60;;;;;;5071527;28;20450;-50
2023/10/10 03:07:28;;;;;;;13.50;6.60;;;19.60;55.10;;;;;;5066708;28;20442;-50
2023/10/10 03:12:48;;;;;;;11.10;6.70;;;19.40;55.20;;;;;;5071713;28;20442;-46
2023/10/10 03:15:27;;;;;;;11.40;7.30;;;19.30;55.70;;;;;;5069816;28;20955;-45
2023/10/10 03:20:48;;;;;;;15.00;6.40;;;19.10;54.80;;;;;;5064129;28;20447;-48
2023/10/10 03:28:30;;;;;;;13.37;6.83;;;18.50;56.40;;;;;;5063094;28;20489;-45
2023/10/10 03:36:31;;;;;;;9.33;6.23;;;17.90;57.70;;;;;;5060011;28;21446;-46
2023/10/10 05:25:14;;;;;;;13.00;6.50;;;18.20;59.20;;;;;;5067727;28;20457;-45
2023/10/10 05:27:42;;;;;;;13.10;7.27;;;18.40;58.30;;;;;;5059625;28;20449;-46
2023/10/10 05:30:23;;;;;;;14.80;6.10;;;18.60;57.40;;;;;;5067156;28;20274;-47
2023/10/10 05:33:01;;;;;;;14.77;5.30;;;18.70;56.70;;;;;;5059540;28;20442;-45
2023/10/10 05:35:40;;;;;;;14.03;6.90;;;18.80;55.90;;;;;;5067174;28;20446;-45
2023/10/10 05:38:10;;;;;;;11.73;5.87;;;18.80;55.40;;;;;;5058292;28;20972;-45
2023/10/10 05:40:38;;;;;;;14.67;7.03;;;18.90;55.40;;;;;;5067695;28;20529;-47
2023/10/10 05:43:15;;;;;;;11.30;6.13;;;19.00;55.40;;;;;;5071003;28;20761;-45
2023/10/10 05:45:42;;;;;;;16.57;6.80;;;19.00;55.10;;;;;;5073022;28;20446;-48
2023/10/10 05:48:08;;;;;;;16.53;6.67;;;19.10;54.70;;;;;;5070115;28;21450;-48
2023/10/10 05:50:34;;;;;;;15.13;6.80;;;19.10;54.40;;;;;;5062969;28;20496;-46
2023/10/10 05:53:06;;;;;;;10.17;6.50;;;19.20;54.30;;;;;;5073387;28;20422;-46
2023/10/10 05:55:35;;;;;;;15.10;6.50;;;19.10;54.10;;;;;;5071910;28;21102;-46
2023/10/10 05:58:02;;;;;;;12.93;6.33;;;19.20;54.00;;;;;;5068080;28;20449;-47
2023/10/10 06:00:28;;;;;;;13.43;7.37;;;19.20;53.90;;;;;;5062538;28;20459;-46
2023/10/10 06:02:54;;;;;;;13.10;5.90;;;19.10;53.70;;;;;;5073412;28;20422;-46
2023/10/10 06:05:20;;;;;;;25.27;8.77;;;19.10;53.90;;;;;;5067183;28;20770;-45
2023/10/10 06:07:49;;;;;;;9.90;6.30;;;19.00;54.00;;;;;;5065253;28;20233;-47
2023/10/10 06:10:18;;;;;;;11.40;6.10;;;19.10;54.20;;;;;;5071900;28;20513;-45
2023/10/10 06:12:47;;;;;;;13.67;5.80;;;19.00;54.60;;;;;;5068823;28;20442;-44
2023/10/10 06:15:18;;;;;;;13.57;5.73;;;18.90;54.90;;;;;;5073562;28;20741;-46
2023/10/10 06:17:45;;;;;;;12.87;6.97;;;19.00;56.00;;;;;;5057371;28;20470;-45
2023/10/10 06:20:16;;;;;;;10.90;6.60;;;19.30;55.20;;;;;;5066985;28;20443;-44
2023/10/10 06:22:47;;;;;;;8.30;5.57;;;19.30;56.00;;;;;;5069574;28;20525;-44
2023/10/10 06:25:17;;;;;;;11.30;5.80;;;19.60;56.60;;;;;;5071934;28;20450;-44
2023/10/10 06:27:45;;;;;;;9.67;5.33;;;19.30;57.80;;;;;;5065563;28;20449;-45
2023/10/10 06:30:17;;;;;;;11.03;7.47;;;19.60;57.10;;;;;;5066596;28;20543;-44
2023/10/10 06:32:44;;;;;;;10.43;6.23;;;20.20;55.30;;;;;;5073891;28;20466;-44
2023/10/10 06:37:45;;;;;;;12.40;5.97;;;20.60;53.60;;;;;;5065004;28;20481;-45
2023/10/10 06:40:11;;;;;;;13.87;6.63;;;20.70;52.50;;;;;;5067637;28;20503;-44
2023/10/10 06:42:37;;;;;;;13.20;7.20;;;20.80;53.60;;;;;;5070426;28;20442;-50
2023/10/10 06:45:07;;;;;;;13.60;6.40;;;21.00;53.10;;;;;;5070240;28;20426;-45
2023/10/10 06:47:34;;;;;;;12.07;6.70;;;21.20;52.30;;;;;;5070655;28;21040;-45
2023/10/10 06:50:01;;;;;;;11.13;6.07;;;21.20;51.80;;;;;;5071577;28;20489;-44
2023/10/10 06:52:30;;;;;;;8.03;5.13;;;21.30;52.00;;;;;;5070175;28;20465;-45
2023/10/10 06:54:56;;;;;;;12.80;6.90;;;21.20;51.60;;;;;;5072893;28;20434;-44
2023/10/10 06:57:35;;;;;;;13.50;5.77;;;21.20;52.30;;;;;;5072477;28;20449;-45
2023/10/10 07:00:08;;;;;;;10.60;6.30;;;21.30;51.70;;;;;;5070856;28;20515;-44
2023/10/10 07:02:39;;;;;;;13.20;5.50;;;21.50;51.90;;;;;;5070349;28;20445;-45
2023/10/10 07:05:07;;;;;;;23.23;6.27;;;21.70;51.50;;;;;;5070034;28;20439;-45
2023/10/10 07:07:37;;;;;;;10.80;6.63;;;21.70;50.60;;;;;;5071397;28;20918;-44
2023/10/10 07:10:09;;;;;;;11.20;6.63;;;21.70;50.20;;;;;;5060500;28;20839;-45
2023/10/10 07:12:35;;;;;;;11.43;6.30;;;21.70;50.80;;;;;;5063562;28;20454;-45
2023/10/10 07:15:06;;;;;;;15.30;7.20;;;21.50;50.40;;;;;;5073946;28;20859;-44
2023/10/10 07:17:32;;;;;;;9.60;6.67;;;21.30;50.80;;;;;;5068581;28;20446;-44
2023/10/10 07:22:27;;;;;;;13.27;5.77;;;20.70;52.70;;;;;;5068493;28;20521;-44
2023/10/10 07:25:06;;;;;;;22.30;6.70;;;20.70;53.60;;;;;;5065000;28;20866;-44
2023/10/10 07:27:33;;;;;;;18.50;7.43;;;20.50;53.40;;;;;;5063196;28;20496;-46
2023/10/10 07:29:58;;;;;;;14.60;6.50;;;20.60;54.40;;;;;;5066066;28;20505;-46
2023/10/10 07:32:30;;;;;;;12.53;5.90;;;20.80;54.10;;;;;;5066335;28;20466;-45
2023/10/10 07:34:56;;;;;;;14.10;6.40;;;21.20;52.30;;;;;;5061490;28;20187;-47
2023/10/10 07:37:29;;;;;;;15.97;6.80;;;21.30;53.40;;;;;;5055770;28;20430;-48
2023/10/10 07:39:55;;;;;;;11.70;6.10;;;21.50;52.90;;;;;;5064003;28;20293;-46
2023/10/10 07:42:27;;;;;;;11.80;5.40;;;21.80;52.70;;;;;;5064614;28;20442;-47
2023/10/10 07:44:57;;;;;;;15.53;5.57;;;22.00;52.20;;;;;;5070422;28;20434;-48
2023/10/10 07:47:26;;;;;;;12.37;6.20;;;22.30;51.70;;;;;;5066022;28;20921;-46
2023/10/10 07:49:55;;;;;;;10.70;5.67;;;22.40;51.70;;;;;;5067986;28;20482;-44
2023/10/10 07:52:22;;;;;;;17.77;6.50;;;22.50;51.20;;;;;;5070310;28;20442;-45
2023/10/10 07:54:53;;;;;;;12.93;5.93;;;22.50;50.90;;;;;;5068209;28;20473;-48
2023/10/10 07:57:25;;;;;;;13.13;5.90;;;22.80;50.50;;;;;;5069817;28;20446;-47
2023/10/10 07:59:55;;;;;;;16.43;6.70;;;23.10;49.90;;;;;;5066599;28;20529;-46
2023/10/10 08:05:09;;;;;;;20.70;6.90;;;23.60;48.10;;;;;;5068893;28;20441;-45
2023/10/10 08:07:35;;;;;;;13.77;6.43;;;23.50;47.90;;;;;;5053935;28;20466;-49
2023/10/10 08:10:13;;;;;;;19.63;7.57;;;23.40;48.70;;;;;;5062114;28;20981;-46
2023/10/10 08:12:43;;;;;;;16.60;6.30;;;23.40;48.70;;;;;;5066601;28;20443;-50
2023/10/10 08:15:24;;;;;;;16.33;7.13;;;23.30;48.80;;;;;;5070854;28;20458;-49
2023/10/10 08:21:07;;;;;;;11.13;6.37;;;23.20;49.20;;;;;;4424503;28;20866;-48
2023/10/10 08:23:24;;;;;;;14.10;7.80;;;23.10;49.20;;;;;;5021207;28;20466;-45
2023/10/10 08:25:51;;;;;;;10.73;5.97;;;23.20;49.40;;;;;;5020258;28;20436;-50
2023/10/10 08:28:16;;;;;;;15.20;7.93;;;23.00;49.40;;;;;;5023645;28;20466;-49
2023/10/10 08:30:42;;;;;;;16.37;7.20;;;23.10;49.40;;;;;;5019835;28;21272;-46
2023/10/10 08:33:07;;;;;;;16.10;6.43;;;23.00;49.40;;;;;;5028243;28;20262;-50
2023/10/10 08:35:39;;;;;;;16.97;6.50;;;22.90;49.40;;;;;;5014251;28;20193;-47
2023/10/10 08:38:07;;;;;;;13.90;6.27;;;22.60;49.80;;;;;;5013104;28;20197;-47
2023/10/10 08:40:36;;;;;;;12.53;6.10;;;22.50;50.30;;;;;;5020381;28;20935;-46
2023/10/10 08:43:07;;;;;;;14.53;5.37;;;22.50;50.10;;;;;;5024213;28;20439;-47
2023/10/10 08:45:43;;;;;;;13.23;5.83;;;22.50;50.70;;;;;;5017005;28;20448;-49
2023/10/10 08:48:15;;;;;;;10.07;6.30;;;22.50;50.40;;;;;;5016828;28;20440;-46
2023/10/10 08:50:42;;;;;;;22.33;7.40;;;22.80;50.20;;;;;;5024055;28;20578;-50
2023/10/10 08:53:12;;;;;;;10.87;5.77;;;22.90;50.10;;;;;;5020877;28;20440;-47
2023/10/10 08:55:40;;;;;;;17.50;6.40;;;22.90;50.10;;;;;;5017432;28;20455;-47
2023/10/10 08:58:07;;;;;;;16.20;5.97;;;22.80;50.10;;;;;;5019312;28;20462;-47
2023/10/10 09:00:33;;;;;;;11.90;6.17;;;22.70;50.70;;;;;;5019811;28;20872;-49
2023/10/10 09:02:59;;;;;;;16.23;6.80;;;23.00;51.10;;;;;;5016098;28;20444;-51
2023/10/10 09:05:26;;;;;;;13.33;5.97;;;23.10;50.40;;;;;;5015693;28;21227;-48
2023/10/10 09:07:54;;;;;;;12.37;5.87;;;23.20;50.10;;;;;;5024260;28;20599;-52
2023/10/10 09:10:39;;;;;;;11.00;5.97;;;23.00;50.50;;;;;;5025475;28;20982;-49
2023/10/10 09:13:06;;;;;;;11.53;5.70;;;23.10;50.60;;;;;;5023434;28;20892;-50
2023/10/10 09:15:33;;;;;;;15.50;7.83;;;23.30;50.50;;;;;;5020872;28;20536;-50
2023/10/10 09:18:17;;;;;;;15.70;5.33;;;23.40;50.40;;;;;;5032527;28;20516;-47
2023/10/10 09:20:46;;;;;;;7.87;5.57;;;23.50;49.80;;;;;;5026994;28;20490;-49
2023/10/10 09:23:32;;;;;;;9.20;5.43;;;23.60;49.80;;;;;;5030508;28;20991;-51
2023/10/10 09:28:58;;;;;;;13.83;6.20;;;24.10;49.20;;;;;;5024266;28;20452;-52
2023/10/10 09:31:32;;;;;;;9.33;5.10;;;24.30;48.40;;;;;;5017333;28;21172;-49
2023/10/10 09:34:03;;;;;;;10.53;5.17;;;24.60;48.20;;;;;;5024076;28;20448;-51
2023/10/10 09:36:29;;;;;;;8.23;4.63;;;24.70;47.50;;;;;;5031772;28;20667;-48
2023/10/10 09:42:06;;;;;;;15.40;5.80;;;25.10;47.10;;;;;;5017041;28;20452;-52
2023/10/10 09:52:57;;;;;;;10.07;5.73;;;25.80;45.60;;;;;;5026696;28;20449;-47
2023/10/10 10:06:34;;;;;;;12.97;5.43;;;26.60;44.90;;;;;;5020934;28;20790;-48
2023/10/10 10:09:32;;;;;;;12.43;5.57;;;26.70;44.40;;;;;;5018512;28;20483;-50
2023/10/10 10:12:08;;;;;;;11.63;5.33;;;26.80;43.60;;;;;;5028675;28;20499;-49
2023/10/10 10:15:15;;;;;;;9.67;4.70;;;26.90;42.60;;;;;;5026993;28;20464;-51
2023/10/10 10:18:10;;;;;;;10.80;5.53;;;27.10;43.10;;;;;;5004056;28;20487;-49
2023/10/10 10:20:49;;;;;;;16.87;6.57;;;27.30;43.00;;;;;;5013515;28;20482;-49
2023/10/10 10:23:25;;;;;;;17.47;5.90;;;27.50;41.90;;;;;;5025240;28;20486;-53
2023/10/10 10:25:55;;;;;;;13.60;5.90;;;27.60;41.50;;;;;;5022155;28;20471;-48
2023/10/10 10:28:28;;;;;;;12.57;5.63;;;27.80;41.90;;;;;;5021977;28;20456;-50
2023/10/10 10:30:54;;;;;;;14.23;5.93;;;27.80;41.50;;;;;;5021505;28;20476;-52
2023/10/10 10:33:22;;;;;;;15.57;6.63;;;28.00;41.20;;;;;;5025388;28;20946;-48
2023/10/10 10:36:07;;;;;;;13.23;5.53;;;28.10;40.20;;;;;;5023029;28;20452;-50
2023/10/10 10:38:34;;;;;;;14.50;6.93;;;28.10;40.00;;;;;;5026406;28;21213;-47
2023/10/10 10:41:16;;;;;;;17.57;6.10;;;28.20;39.40;;;;;;5032508;28;20827;-51
2023/10/10 10:43:51;;;;;;;15.57;5.47;;;28.30;39.30;;;;;;5032987;28;20439;-47
2023/10/10 10:46:27;;;;;;;11.10;6.10;;;28.20;39.40;;;;;;5028537;28;20531;-47
2023/10/10 10:49:05;;;;;;;14.80;5.40;;;28.30;39.30;;;;;;5025080;28;20443;-49
2023/10/10 10:51:43;;;;;;;14.33;6.00;;;28.30;38.80;;;;;;5030147;28;20463;-47
2023/10/10 10:54:11;;;;;;;8.30;5.00;;;28.40;38.20;;;;;;5022164;28;20979;-50
2023/10/10 10:59:12;;;;;;;12.83;5.33;;;28.60;38.20;;;;;;5028872;28;20448;-49
2023/10/10 11:01:58;;;;;;;12.70;5.80;;;28.80;37.80;;;;;;5025727;28;20312;-51
2023/10/10 11:07:00;;;;;;;14.33;7.10;;;28.90;36.60;;;;;;5023743;28;20436;-47
2023/10/10 11:09:28;;;;;;;10.90;5.07;;;29.00;36.20;;;;;;5028853;28;20477;-51
2023/10/10 11:12:08;;;;;;;12.60;6.20;;;29.00;35.20;;;;;;5026373;28;20452;-51
2023/10/10 11:14:36;;;;;;;9.00;5.43;;;28.70;35.40;;;;;;5025110;28;20935;-51
2023/10/10 11:17:02;;;;;;;11.23;6.00;;;28.80;36.30;;;;;;5024413;28;20440;-49
2023/10/10 11:22:05;;;;;;;13.83;6.23;;;29.20;34.40;;;;;;5020966;28;20889;-52
2023/10/10 11:24:34;;;;;;;7.90;5.30;;;29.20;34.80;;;;;;5028089;28;20978;-51
2023/10/10 11:30:00;;;;;;;9.80;5.77;;;29.40;33.60;;;;;;5023239;28;20494;-49
2023/10/10 11:32:36;;;;;;;12.57;7.07;;;29.40;33.40;;;;;;5025489;28;20451;-50
2023/10/10 11:35:18;;;;;;;14.37;6.33;;;29.40;34.70;;;;;;5028213;28;20482;-52
2023/10/10 11:37:59;;;;;;;10.07;5.60;;;29.50;34.30;;;;;;5027363;28;20443;-53
2023/10/10 11:42:56;;;;;;;13.07;6.00;;;29.70;33.80;;;;;;5027680;28;20444;-48
2023/10/10 11:45:26;;;;;;;11.53;6.13;;;29.70;32.20;;;;;;5022597;28;20470;-53
2023/10/10 11:47:53;;;;;;;14.23;6.00;;;29.40;32.60;;;;;;5027487;28;20439;-48
2023/10/10 11:50:27;;;;;;;9.07;5.70;;;29.50;33.40;;;;;;5023814;28;20492;-50
2023/10/10 11:53:01;;;;;;;10.63;5.40;;;29.60;33.70;;;;;;5030737;28;20534;-49
2023/10/10 11:55:27;;;;;;;13.33;5.77;;;29.80;33.40;;;;;;5015974;28;20448;-51
2023/10/10 11:57:58;;;;;;;11.90;6.40;;;29.90;33.20;;;;;;5028474;28;20459;-47
2023/10/10 12:00:42;;;;;;;11.33;6.00;;;29.90;32.50;;;;;;5025590;28;20853;-52
2023/10/10 12:04:06;;;;;;;12.53;5.67;;;30.00;32.40;;;;;;5023874;28;20456;-49
2023/10/10 12:06:03;;;;;;;11.40;6.17;;;30.10;33.20;;;;;;5005598;28;21086;-46
2023/10/10 12:08:29;;;;;;;14.70;5.90;;;30.10;31.70;;;;;;5024210;28;20519;-52
2023/10/10 12:11:12;;;;;;;9.77;5.90;;;30.20;31.70;;;;;;5024388;28;20241;-47
2023/10/10 12:13:37;;;;;;;13.30;6.73;;;30.20;29.80;;;;;;5029290;28;20212;-50
2023/10/10 12:16:07;;;;;;;9.47;6.40;;;30.20;30.60;;;;;;5024099;28;21007;-47
2023/10/10 12:18:34;;;;;;;10.53;6.03;;;30.30;30.00;;;;;;5021047;28;20325;-46
2023/10/10 12:21:01;;;;;;;11.73;6.50;;;30.20;27.80;;;;;;5024931;28;20482;-48
2023/10/10 12:23:31;;;;;;;16.77;6.97;;;30.20;30.60;;;;;;5026317;28;20442;-47
2023/10/10 12:25:59;;;;;;;10.97;5.87;;;30.20;32.00;;;;;;5027774;28;20945;-48
2023/10/10 12:28:25;;;;;;;9.70;6.83;;;30.30;30.90;;;;;;5029353;28;21008;-46
2023/10/10 12:30:51;;;;;;;14.97;7.13;;;30.50;30.10;;;;;;5026417;28;20499;-48
2023/10/10 12:33:19;;;;;;;10.30;6.30;;;30.70;30.10;;;;;;5025141;28;20730;-47
2023/10/10 12:35:48;;;;;;;10.60;7.30;;;30.60;28.10;;;;;;5025307;28;21584;-47
2023/10/10 12:38:20;;;;;;;9.57;6.83;;;30.60;28.10;;;;;;5027968;28;20591;-48
2023/10/10 12:40:52;;;;;;;11.13;6.70;;;30.60;27.70;;;;;;5026526;28;20432;-45
2023/10/10 12:43:23;;;;;;;14.43;7.97;;;30.80;28.00;;;;;;5022565;28;20454;-44
2023/10/10 12:45:51;;;;;;;10.23;6.47;;;30.50;24.70;;;;;;5027266;28;20439;-45
2023/10/10 12:48:23;;;;;;;11.17;7.80;;;30.40;25.80;;;;;;5024204;28;20448;-46
2023/10/10 12:50:51;;;;;;;10.77;6.93;;;30.50;26.60;;;;;;5020166;28;20518;-48
2023/10/10 12:53:19;;;;;;;13.27;7.03;;;30.60;28.60;;;;;;5019987;28;20451;-50
2023/10/10 12:55:48;;;;;;;13.47;6.30;;;30.70;28.60;;;;;;5023008;28;20531;-47
2023/10/10 12:58:20;;;;;;;11.27;6.30;;;30.80;28.30;;;;;;5019284;28;20447;-50
2023/10/10 13:00:52;;;;;;;10.00;6.80;;;30.90;28.60;;;;;;5028772;28;20950;-50
2023/10/10 13:03:23;;;;;;;10.27;6.40;;;31.00;28.30;;;;;;5028731;28;20455;-48
2023/10/10 13:05:52;;;;;;;17.90;7.73;;;31.00;28.50;;;;;;5015845;28;20547;-50
2023/10/10 13:08:20;;;;;;;13.97;7.70;;;31.00;29.00;;;;;;5022567;28;20532;-48
2023/10/10 13:10:54;;;;;;;10.50;6.70;;;31.00;28.30;;;;;;5021671;28;20483;-45
2023/10/10 13:13:26;;;;;;;9.20;5.97;;;31.00;27.40;;;;;;5030341;28;20809;-45
2023/10/10 13:16:07;;;;;;;13.73;7.87;;;31.10;27.80;;;;;;5025046;28;20470;-46
2023/10/10 13:18:35;;;;;;;9.37;6.60;;;31.00;27.40;;;;;;5020341;28;20487;-45
2023/10/10 13:21:02;;;;;;;12.93;7.10;;;31.20;28.30;;;;;;5025628;28;21002;-50
2023/10/10 13:23:29;;;;;;;12.90;6.10;;;31.00;27.40;;;;;;5014852;28;20506;-47
2023/10/10 13:25:55;;;;;;;14.37;6.73;;;30.90;27.00;;;;;;5025335;28;20530;-45
2023/10/10 13:28:21;;;;;;;9.80;6.60;;;31.00;27.10;;;;;;5017757;28;20539;-50
2023/10/10 13:30:47;;;;;;;8.90;6.40;;;30.90;26.40;;;;;;5026791;28;20243;-47
2023/10/10 13:33:14;;;;;;;9.53;6.40;;;31.10;26.70;;;;;;5020496;28;20594;-45
2023/10/10 13:35:39;;;;;;;13.70;7.47;;;31.10;27.10;;;;;;5029064;28;20533;-45
2023/10/10 13:38:06;;;;;;;12.83;7.03;;;31.10;27.80;;;;;;5030290;28;20507;-47
2023/10/10 13:40:43;;;;;;;10.97;6.80;;;31.20;28.30;;;;;;5027774;28;20687;-47
2023/10/10 13:43:09;;;;;;;11.73;6.30;;;31.30;28.10;;;;;;5023222;28;20482;-50
2023/10/10 13:45:38;;;;;;;12.80;7.23;;;31.40;28.50;;;;;;5021514;28;20448;-47
2023/10/10 13:48:13;;;;;;;15.63;6.80;;;31.50;28.10;;;;;;5022077;28;20432;-50
2023/10/10 13:50:42;;;;;;;12.37;7.20;;;31.60;28.10;;;;;;5017388;28;21123;-45
2023/10/10 13:53:12;;;;;;;10.27;7.10;;;31.60;27.60;;;;;;5029166;28;20443;-47
2023/10/10 13:55:42;;;;;;;12.37;5.80;;;31.60;28.20;;;;;;5031118;28;20777;-45
2023/10/10 13:58:12;;;;;;;12.33;6.10;;;31.60;28.10;;;;;;5031094;28;20535;-45
2023/10/10 14:00:39;;;;;;;15.67;7.27;;;31.60;28.70;;;;;;5031181;28;20447;-46
2023/10/10 14:03:06;;;;;;;10.40;6.60;;;31.60;28.20;;;;;;5030128;28;20501;-45
2023/10/10 14:05:36;;;;;;;14.63;7.00;;;31.60;27.30;;;;;;5031229;28;20863;-49
2023/10/10 14:08:17;;;;;;;10.33;6.10;;;31.50;27.80;;;;;;5023592;28;20450;-46
2023/10/10 14:10:42;;;;;;;15.23;6.50;;;31.50;28.30;;;;;;5027236;28;20487;-48
2023/10/10 14:13:18;;;;;;;12.40;6.90;;;31.40;28.00;;;;;;5031737;28;20922;-47
2023/10/10 14:15:56;;;;;;;10.60;6.13;;;31.40;28.20;;;;;;5031955;28;20617;-49
2023/10/10 14:18:32;;;;;;;12.23;6.10;;;31.40;29.10;;;;;;5026174;28;20447;-46
2023/10/10 14:21:08;;;;;;;16.13;6.40;;;31.30;28.80;;;;;;5029909;28;20478;-45
2023/10/10 14:23:35;;;;;;;10.67;6.60;;;31.30;29.20;;;;;;5031503;28;20878;-49
2023/10/10 14:26:18;;;;;;;10.10;6.90;;;31.30;29.40;;;;;;5032263;28;20810;-49
2023/10/10 14:28:51;;;;;;;13.53;6.00;;;31.30;29.50;;;;;;5031599;28;20518;-47
2023/10/10 14:31:19;;;;;;;12.20;6.47;;;31.30;30.00;;;;;;5033306;28;20454;-45
2023/10/10 14:33:44;;;;;;;14.60;6.80;;;31.20;30.50;;;;;;5020685;28;20463;-48
2023/10/10 14:36:14;;;;;;;11.60;6.37;;;31.20;30.70;;;;;;5026171;28;20425;-46
2023/10/10 14:38:47;;;;;;;11.67;6.30;;;31.10;30.60;;;;;;5018088;28;20201;-46
2023/10/10 14:41:17;;;;;;;15.17;6.37;;;31.10;30.00;;;;;;5030653;28;20447;-45
2023/10/10 14:43:54;;;;;;;12.07;7.00;;;31.10;30.50;;;;;;5031132;28;20456;-48
2023/10/10 14:46:33;;;;;;;11.97;6.80;;;31.10;30.60;;;;;;5032785;28;20844;-45
2023/10/10 14:49:06;;;;;;;12.13;6.40;;;31.00;30.30;;;;;;5032689;28;20469;-46
2023/10/10 14:51:36;;;;;;;12.27;6.40;;;31.20;30.60;;;;;;5027988;28;20430;-50
2023/10/10 14:54:12;;;;;;;10.73;6.10;;;31.10;29.90;;;;;;5022568;28;20782;-47
2023/10/10 14:56:50;;;;;;;10.80;6.90;;;31.20;30.10;;;;;;5032968;28;20434;-47
2023/10/10 14:59:24;;;;;;;14.40;7.03;;;31.20;30.10;;;;;;5014936;28;20459;-46
2023/10/10 15:01:50;;;;;;;11.00;7.60;;;31.20;30.20;;;;;;5022730;28;20939;-50
2023/10/10 15:04:18;;;;;;;16.00;6.60;;;31.20;30.20;;;;;;5021772;28;20448;-46
2023/10/10 15:06:45;;;;;;;11.13;6.60;;;31.20;30.50;;;;;;5023817;28;20436;-48
2023/10/10 15:09:14;;;;;;;11.50;6.57;;;31.20;30.70;;;;;;5023205;28;20460;-48
2023/10/10 15:11:44;;;;;;;12.30;6.80;;;31.20;30.80;;;;;;5020449;28;20448;-47
2023/10/10 15:14:10;;;;;;;13.40;6.50;;;31.20;30.90;;;;;;5026897;28;20459;-46
2023/10/10 15:16:37;;;;;;;11.97;7.20;;;31.10;31.10;;;;;;5028134;28;20534;-51
2023/10/10 15:19:06;;;;;;;13.80;7.10;;;31.00;31.30;;;;;;5023374;28;20461;-46
2023/10/10 15:21:32;;;;;;;10.90;6.90;;;31.00;31.40;;;;;;5029791;28;21038;-48
2023/10/10 15:24:09;;;;;;;13.70;7.37;;;30.80;31.60;;;;;;5030158;28;20482;-48
2023/10/10 15:26:34;;;;;;;14.77;7.60;;;30.80;32.00;;;;;;5023727;28;20534;-49
2023/10/10 15:29:00;;;;;;;21.57;6.63;;;30.70;32.10;;;;;;5031493;28;20558;-46
2023/10/10 15:31:29;;;;;;;11.50;6.50;;;30.70;32.30;;;;;;5031557;28;20272;-49
2023/10/10 15:33:57;;;;;;;11.77;7.30;;;30.60;32.50;;;;;;5031663;28;20197;-50
2023/10/10 15:36:23;;;;;;;18.50;6.80;;;30.50;32.70;;;;;;5029698;28;20443;-51
2023/10/10 15:38:49;;;;;;;10.40;7.20;;;30.50;33.00;;;;;;5027872;28;20490;-52
2023/10/10 15:41:20;;;;;;;15.97;7.30;;;30.50;33.10;;;;;;5019342;28;20523;-47
2023/10/10 15:43:49;;;;;;;12.53;6.80;;;30.40;33.40;;;;;;5028557;28;20197;-49
2023/10/10 15:46:16;;;;;;;13.60;6.97;;;30.30;33.60;;;;;;5021460;28;20452;-46
2023/10/10 15:48:48;;;;;;;12.70;7.20;;;30.30;33.70;;;;;;5019791;28;20458;-46
2023/10/10 15:51:17;;;;;;;17.43;7.67;;;30.20;34.50;;;;;;5023793;28;20479;-49
2023/10/10 15:53:43;;;;;;;12.47;7.97;;;30.10;34.20;;;;;;5018386;28;20868;-50
2023/10/10 15:56:17;;;;;;;19.83;7.63;;;30.10;34.30;;;;;;5025317;28;20445;-47
2023/10/10 15:58:49;;;;;;;11.97;8.13;;;30.00;34.30;;;;;;5021104;28;20235;-48
2023/10/10 16:01:21;;;;;;;12.07;7.77;;;30.00;34.40;;;;;;5016375;28;20440;-47
2023/10/10 16:03:54;;;;;;;14.90;8.23;;;29.90;34.60;;;;;;5023369;28;20447;-48
2023/10/10 16:06:24;;;;;;;13.77;7.53;;;29.90;34.80;;;;;;5023117;28;21034;-47